sensor_id;sensor_type;location;lat;lon;timestamp;temperature;humidity
14555;DHT22;7364;50.870;4.722;2023-03-14T00:02:21;13.10;99.90
14555;DHT22;7364;50.870;4.722;2023-03-14T00:04:49;13.00;99.90
14555;DHT22;7364;50.870;4.722;2023-03-14T00:07:16;13.00;99.90
14555;DHT22;7364;50.870;4.722;2023-03-14T00:09:43;12.80;99.90
14555;DHT22;7364;50.870;4.722;2023-03-14T00:12:11;12.80;99.90
14555;DHT22;7364;50.870;4.722;2023-03-14T00:14:40;12.90;99.90
14555;DHT22;7364;50.870;4.722;2023-03-14T00:17:10;13.10;99.90
14555;DHT22;7364;50.870;4.722;2023-03-14T00:19:37;13.40;99.90
14555;DHT22;7364;50.870;4.722;2023-03-14T00:22:05;13.40;99.90
14555;DHT22;7364;50.870;4.722;2023-03-14T00:24:32;13.40;99.90
14555;DHT22;7364;50.870;4.722;2023-03-14T00:26:59;13.10;99.90
14555;DHT22;7364;50.870;4.722;2023-03-14T00:29:27;12.90;99.90
14555;DHT22;7364;50.870;4.722;2023-03-14T00:31:54;12.90;99.90
14555;DHT22;7364;50.870;4.722;2023-03-14T00:34:23;12.90;99.90
14555;DHT22;7364;50.870;4.722;2023-03-14T00:36:50;13.00;99.90
14555;DHT22;7364;50.870;4.722;2023-03-14T00:39:18;12.90;99.90
14555;DHT22;7364;50.870;4.722;2023-03-14T00:41:45;12.70;99.90
14555;DHT22;7364;50.870;4.722;2023-03-14T00:44:13;12.80;99.90
14555;DHT22;7364;50.870;4.722;2023-03-14T00:46:40;12.80;99.90
14555;DHT22;7364;50.870;4.722;2023-03-14T00:49:07;12.70;99.90
14555;DHT22;7364;50.870;4.722;2023-03-14T00:51:36;12.70;99.90
14555;DHT22;7364;50.870;4.722;2023-03-14T00:54:04;12.70;99.90
14555;DHT22;7364;50.870;4.722;2023-03-14T00:56:31;12.60;99.90
14555;DHT22;7364;50.870;4.722;2023-03-14T00:58:58;12.50;99.90
14555;DHT22;7364;50.870;4.722;2023-03-14T01:01:25;12.50;99.90
14555;DHT22;7364;50.870;4.722;2023-03-14T01:03:53;12.40;99.90
14555;DHT22;7364;50.870;4.722;2023-03-14T01:06:23;12.40;99.90
14555;DHT22;7364;50.870;4.722;2023-03-14T01:08:54;12.50;99.90
14555;DHT22;7364;50.870;4.722;2023-03-14T01:11:23;12.40;99.90
14555;DHT22;7364;50.870;4.722;2023-03-14T01:13:53;12.40;99.90
14555;DHT22;7364;50.870;4.722;2023-03-14T01:16:21;12.40;99.90
14555;DHT22;7364;50.870;4.722;2023-03-14T01:18:50;12.40;99.90
14555;DHT22;7364;50.870;4.722;2023-03-14T01:21:21;12.40;99.90
14555;DHT22;7364;50.870;4.722;2023-03-14T01:23:49;12.40;99.90
14555;DHT22;7364;50.870;4.722;2023-03-14T01:26:21;12.40;99.90
14555;DHT22;7364;50.870;4.722;2023-03-14T01:28:50;12.40;99.90
14555;DHT22;7364;50.870;4.722;2023-03-14T01:31:18;12.40;99.90
14555;DHT22;7364;50.870;4.722;2023-03-14T01:33:46;12.30;99.90
14555;DHT22;7364;50.870;4.722;2023-03-14T01:36:14;12.30;99.90
14555;DHT22;7364;50.870;4.722;2023-03-14T01:38:42;12.30;99.90
14555;DHT22;7364;50.870;4.722;2023-03-14T01:41:14;12.20;99.90
14555;DHT22;7364;50.870;4.722;2023-03-14T01:43:44;12.20;99.90
14555;DHT22;7364;50.870;4.722;2023-03-14T01:46:37;12.20;99.90
14555;DHT22;7364;50.870;4.722;2023-03-14T01:49:24;12.20;99.90
14555;DHT22;7364;50.870;4.722;2023-03-14T01:51:56;12.00;99.90
14555;DHT22;7364;50.870;4.722;2023-03-14T01:54:28;12.10;99.90
14555;DHT22;7364;50.870;4.722;2023-03-14T01:57:03;11.90;99.90
14555;DHT22;7364;50.870;4.722;2023-03-14T01:59:34;12.00;99.90
14555;DHT22;7364;50.870;4.722;2023-03-14T02:02:03;11.90;99.90
14555;DHT22;7364;50.870;4.722;2023-03-14T02:04:34;12.00;99.90
14555;DHT22;7364;50.870;4.722;2023-03-14T02:07:05;11.90;99.90
14555;DHT22;7364;50.870;4.722;2023-03-14T02:09:34;12.00;99.90
14555;DHT22;7364;50.870;4.722;2023-03-14T02:12:03;12.00;99.90
14555;DHT22;7364;50.870;4.722;2023-03-14T02:14:34;12.10;99.90
14555;DHT22;7364;50.870;4.722;2023-03-14T02:17:04;11.90;99.90
14555;DHT22;7364;50.870;4.722;2023-03-14T02:19:46;11.80;99.90
14555;DHT22;7364;50.870;4.722;2023-03-14T02:22:19;11.90;99.90
14555;DHT22;7364;50.870;4.722;2023-03-14T02:24:50;11.70;99.90
14555;DHT22;7364;50.870;4.722;2023-03-14T02:27:23;11.60;99.90
14555;DHT22;7364;50.870;4.722;2023-03-14T02:29:53;11.60;99.90
14555;DHT22;7364;50.870;4.722;2023-03-14T02:32:25;11.40;99.90
14555;DHT22;7364;50.870;4.722;2023-03-14T02:34:55;11.20;99.90
14555;DHT22;7364;50.870;4.722;2023-03-14T02:37:26;11.00;99.90
14555;DHT22;7364;50.870;4.722;2023-03-14T02:39:59;11.00;99.90
14555;DHT22;7364;50.870;4.722;2023-03-14T02:42:27;10.90;99.90
14555;DHT22;7364;50.870;4.722;2023-03-14T02:44:59;10.80;99.90
14555;DHT22;7364;50.870;4.722;2023-03-14T02:47:29;10.70;99.90
14555;DHT22;7364;50.870;4.722;2023-03-14T02:50:00;10.80;99.90
14555;DHT22;7364;50.870;4.722;2023-03-14T02:52:29;10.80;99.90
14555;DHT22;7364;50.870;4.722;2023-03-14T02:54:56;10.90;99.90
14555;DHT22;7364;50.870;4.722;2023-03-14T02:57:23;10.90;99.90
14555;DHT22;7364;50.870;4.722;2023-03-14T02:59:52;10.90;99.90
14555;DHT22;7364;50.870;4.722;2023-03-14T03:02:19;11.00;99.90
14555;DHT22;7364;50.870;4.722;2023-03-14T03:04:48;11.10;99.90
14555;DHT22;7364;50.870;4.722;2023-03-14T03:07:16;11.10;99.90
14555;DHT22;7364;50.870;4.722;2023-03-14T03:09:45;11.10;99.90
14555;DHT22;7364;50.870;4.722;2023-03-14T03:12:12;11.30;99.90
14555;DHT22;7364;50.870;4.722;2023-03-14T03:14:39;11.40;99.90
14555;DHT22;7364;50.870;4.722;2023-03-14T03:17:08;11.20;99.90
14555;DHT22;7364;50.870;4.722;2023-03-14T03:19:36;11.00;99.90
14555;DHT22;7364;50.870;4.722;2023-03-14T03:22:03;11.00;99.90
14555;DHT22;7364;50.870;4.722;2023-03-14T03:24:30;11.10;99.90
14555;DHT22;7364;50.870;4.722;2023-03-14T03:26:58;11.10;99.90
14555;DHT22;7364;50.870;4.722;2023-03-14T03:29:28;11.00;99.90
14555;DHT22;7364;50.870;4.722;2023-03-14T03:31:56;11.00;99.90
14555;DHT22;7364;50.870;4.722;2023-03-14T03:34:24;10.90;99.90
14555;DHT22;7364;50.870;4.722;2023-03-14T03:36:52;10.90;99.90
14555;DHT22;7364;50.870;4.722;2023-03-14T03:39:19;10.90;99.90
14555;DHT22;7364;50.870;4.722;2023-03-14T03:41:46;10.80;99.90
14555;DHT22;7364;50.870;4.722;2023-03-14T03:44:14;10.80;99.90
14555;DHT22;7364;50.870;4.722;2023-03-14T03:46:46;10.70;99.90
14555;DHT22;7364;50.870;4.722;2023-03-14T03:49:13;10.70;99.90
14555;DHT22;7364;50.870;4.722;2023-03-14T03:51:46;10.70;99.90
14555;DHT22;7364;50.870;4.722;2023-03-14T03:54:14;10.70;99.90
14555;DHT22;7364;50.870;4.722;2023-03-14T03:56:41;10.70;99.90
14555;DHT22;7364;50.870;4.722;2023-03-14T03:59:09;10.80;99.90
14555;DHT22;7364;50.870;4.722;2023-03-14T04:01:37;10.80;99.90
14555;DHT22;7364;50.870;4.722;2023-03-14T04:04:04;10.80;99.90
14555;DHT22;7364;50.870;4.722;2023-03-14T04:06:32;10.80;99.90
14555;DHT22;7364;50.870;4.722;2023-03-14T04:09:01;10.70;99.90
14555;DHT22;7364;50.870;4.722;2023-03-14T04:11:30;10.70;99.90
14555;DHT22;7364;50.870;4.722;2023-03-14T04:13:57;10.70;99.90
14555;DHT22;7364;50.870;4.722;2023-03-14T04:16:25;10.60;99.90
14555;DHT22;7364;50.870;4.722;2023-03-14T04:18:53;10.60;99.90
14555;DHT22;7364;50.870;4.722;2023-03-14T04:21:20;10.60;99.90
14555;DHT22;7364;50.870;4.722;2023-03-14T04:23:47;10.60;99.90
14555;DHT22;7364;50.870;4.722;2023-03-14T04:26:16;10.70;99.90
14555;DHT22;7364;50.870;4.722;2023-03-14T04:28:44;10.70;99.90
14555;DHT22;7364;50.870;4.722;2023-03-14T04:31:15;10.70;99.90
14555;DHT22;7364;50.870;4.722;2023-03-14T04:33:44;10.80;99.90
14555;DHT22;7364;50.870;4.722;2023-03-14T04:36:12;10.70;99.90
14555;DHT22;7364;50.870;4.722;2023-03-14T04:38:40;10.80;99.90
14555;DHT22;7364;50.870;4.722;2023-03-14T04:41:08;10.80;99.90
14555;DHT22;7364;50.870;4.722;2023-03-14T04:43:37;10.90;99.90
14555;DHT22;7364;50.870;4.722;2023-03-14T04:46:04;10.90;99.90
14555;DHT22;7364;50.870;4.722;2023-03-14T04:48:32;10.90;99.90
14555;DHT22;7364;50.870;4.722;2023-03-14T04:50:59;10.90;99.90
14555;DHT22;7364;50.870;4.722;2023-03-14T04:53:27;11.00;99.90
14555;DHT22;7364;50.870;4.722;2023-03-14T04:55:55;11.10;99.90
14555;DHT22;7364;50.870;4.722;2023-03-14T04:58:23;11.10;99.90
14555;DHT22;7364;50.870;4.722;2023-03-14T05:00:52;10.90;99.90
14555;DHT22;7364;50.870;4.722;2023-03-14T05:03:19;10.90;99.90
14555;DHT22;7364;50.870;4.722;2023-03-14T05:05:47;11.00;99.90
14555;DHT22;7364;50.870;4.722;2023-03-14T05:08:14;10.90;99.90
14555;DHT22;7364;50.870;4.722;2023-03-14T05:10:42;11.00;99.90
14555;DHT22;7364;50.870;4.722;2023-03-14T05:13:10;10.90;99.90
14555;DHT22;7364;50.870;4.722;2023-03-14T05:15:37;11.00;99.90
14555;DHT22;7364;50.870;4.722;2023-03-14T05:18:06;11.00;99.90
14555;DHT22;7364;50.870;4.722;2023-03-14T05:20:33;11.10;99.90
14555;DHT22;7364;50.870;4.722;2023-03-14T05:23:03;11.30;99.90
14555;DHT22;7364;50.870;4.722;2023-03-14T05:25:30;11.40;99.90
14555;DHT22;7364;50.870;4.722;2023-03-14T05:27:58;11.30;99.90
14555;DHT22;7364;50.870;4.722;2023-03-14T05:30:25;11.40;99.90
14555;DHT22;7364;50.870;4.722;2023-03-14T05:32:54;11.40;99.90
14555;DHT22;7364;50.870;4.722;2023-03-14T05:35:22;11.30;99.90
14555;DHT22;7364;50.870;4.722;2023-03-14T05:37:50;11.30;99.90
14555;DHT22;7364;50.870;4.722;2023-03-14T05:40:17;11.50;99.90
14555;DHT22;7364;50.870;4.722;2023-03-14T05:42:45;11.50;99.90
14555;DHT22;7364;50.870;4.722;2023-03-14T05:45:12;11.50;99.90
14555;DHT22;7364;50.870;4.722;2023-03-14T05:47:39;11.50;99.90
14555;DHT22;7364;50.870;4.722;2023-03-14T05:50:07;11.50;99.90
14555;DHT22;7364;50.870;4.722;2023-03-14T05:52:36;11.60;99.90
14555;DHT22;7364;50.870;4.722;2023-03-14T05:55:04;11.70;99.90
14555;DHT22;7364;50.870;4.722;2023-03-14T05:57:32;11.70;99.90
14555;DHT22;7364;50.870;4.722;2023-03-14T05:59:59;11.60;99.90
14555;DHT22;7364;50.870;4.722;2023-03-14T06:02:27;11.70;99.90
14555;DHT22;7364;50.870;4.722;2023-03-14T06:04:54;11.60;99.90
14555;DHT22;7364;50.870;4.722;2023-03-14T06:07:21;11.70;99.90
14555;DHT22;7364;50.870;4.722;2023-03-14T06:09:50;11.70;99.90
14555;DHT22;7364;50.870;4.722;2023-03-14T06:12:18;11.80;99.90
14555;DHT22;7364;50.870;4.722;2023-03-14T06:14:46;11.70;99.90
14555;DHT22;7364;50.870;4.722;2023-03-14T06:17:13;11.70;99.90
14555;DHT22;7364;50.870;4.722;2023-03-14T06:19:41;11.80;99.90
14555;DHT22;7364;50.870;4.722;2023-03-14T06:22:08;11.70;99.90
14555;DHT22;7364;50.870;4.722;2023-03-14T06:24:35;11.60;99.90
14555;DHT22;7364;50.870;4.722;2023-03-14T06:27:04;11.40;99.90
14555;DHT22;7364;50.870;4.722;2023-03-14T06:29:32;11.50;99.90
14555;DHT22;7364;50.870;4.722;2023-03-14T06:32:03;11.50;99.90
14555;DHT22;7364;50.870;4.722;2023-03-14T06:34:31;11.50;99.90
14555;DHT22;7364;50.870;4.722;2023-03-14T06:36:58;11.40;99.90
14555;DHT22;7364;50.870;4.722;2023-03-14T06:39:26;11.50;99.90
14555;DHT22;7364;50.870;4.722;2023-03-14T06:41:53;11.40;99.90
14555;DHT22;7364;50.870;4.722;2023-03-14T06:44:22;11.20;99.90
14555;DHT22;7364;50.870;4.722;2023-03-14T06:46:50;11.10;99.90
14555;DHT22;7364;50.870;4.722;2023-03-14T06:49:17;11.00;99.90
14555;DHT22;7364;50.870;4.722;2023-03-14T06:51:45;11.10;99.90
14555;DHT22;7364;50.870;4.722;2023-03-14T06:54:12;11.30;99.90
14555;DHT22;7364;50.870;4.722;2023-03-14T06:56:40;11.30;99.90
14555;DHT22;7364;50.870;4.722;2023-03-14T06:59:08;11.30;99.90
14555;DHT22;7364;50.870;4.722;2023-03-14T07:01:37;11.50;99.90
14555;DHT22;7364;50.870;4.722;2023-03-14T07:04:06;11.50;99.90
14555;DHT22;7364;50.870;4.722;2023-03-14T07:06:34;11.40;99.90
14555;DHT22;7364;50.870;4.722;2023-03-14T07:09:01;11.20;99.90
14555;DHT22;7364;50.870;4.722;2023-03-14T07:11:30;11.10;99.90
14555;DHT22;7364;50.870;4.722;2023-03-14T07:13:58;10.60;99.90
14555;DHT22;7364;50.870;4.722;2023-03-14T07:16:25;9.90;99.90
14555;DHT22;7364;50.870;4.722;2023-03-14T07:18:58;9.40;99.90
14555;DHT22;7364;50.870;4.722;2023-03-14T07:21:26;9.00;99.90
14555;DHT22;7364;50.870;4.722;2023-03-14T07:23:54;8.60;99.90
14555;DHT22;7364;50.870;4.722;2023-03-14T07:26:22;8.40;99.90
14555;DHT22;7364;50.870;4.722;2023-03-14T07:28:49;8.30;99.90
14555;DHT22;7364;50.870;4.722;2023-03-14T07:31:17;8.30;99.90
14555;DHT22;7364;50.870;4.722;2023-03-14T07:33:44;8.20;99.90
14555;DHT22;7364;50.870;4.722;2023-03-14T07:36:13;8.10;99.90
14555;DHT22;7364;50.870;4.722;2023-03-14T07:38:41;8.10;99.90
14555;DHT22;7364;50.870;4.722;2023-03-14T07:41:08;8.00;99.90
14555;DHT22;7364;50.870;4.722;2023-03-14T07:43:36;7.70;99.90
14555;DHT22;7364;50.870;4.722;2023-03-14T07:46:04;7.60;99.90
14555;DHT22;7364;50.870;4.722;2023-03-14T07:48:31;7.60;99.90
14555;DHT22;7364;50.870;4.722;2023-03-14T07:50:59;7.60;99.90
14555;DHT22;7364;50.870;4.722;2023-03-14T07:53:28;7.70;99.90
14555;DHT22;7364;50.870;4.722;2023-03-14T07:55:55;7.60;99.90
14555;DHT22;7364;50.870;4.722;2023-03-14T07:58:23;7.50;99.90
14555;DHT22;7364;50.870;4.722;2023-03-14T08:00:51;7.50;99.90
14555;DHT22;7364;50.870;4.722;2023-03-14T08:03:20;7.50;99.90
14555;DHT22;7364;50.870;4.722;2023-03-14T08:05:47;7.60;99.90
14555;DHT22;7364;50.870;4.722;2023-03-14T08:08:16;7.50;99.90
14555;DHT22;7364;50.870;4.722;2023-03-14T08:10:45;7.60;99.90
14555;DHT22;7364;50.870;4.722;2023-03-14T08:13:15;7.70;99.90
14555;DHT22;7364;50.870;4.722;2023-03-14T08:15:46;7.60;99.90
14555;DHT22;7364;50.870;4.722;2023-03-14T08:18:14;7.60;99.90
14555;DHT22;7364;50.870;4.722;2023-03-14T08:20:42;7.70;99.90
14555;DHT22;7364;50.870;4.722;2023-03-14T08:23:09;7.60;99.90
14555;DHT22;7364;50.870;4.722;2023-03-14T08:25:38;7.70;99.90
14555;DHT22;7364;50.870;4.722;2023-03-14T08:28:07;7.70;99.90
14555;DHT22;7364;50.870;4.722;2023-03-14T08:30:35;7.70;99.90
14555;DHT22;7364;50.870;4.722;2023-03-14T08:33:03;7.70;99.90
14555;DHT22;7364;50.870;4.722;2023-03-14T08:35:31;7.60;99.90
14555;DHT22;7364;50.870;4.722;2023-03-14T08:37:59;7.70;99.90
14555;DHT22;7364;50.870;4.722;2023-03-14T08:40:27;7.70;99.90
14555;DHT22;7364;50.870;4.722;2023-03-14T08:42:56;7.70;99.90
14555;DHT22;7364;50.870;4.722;2023-03-14T08:45:27;7.70;99.90
14555;DHT22;7364;50.870;4.722;2023-03-14T08:47:55;7.70;99.90
14555;DHT22;7364;50.870;4.722;2023-03-14T08:50:24;7.70;99.90
14555;DHT22;7364;50.870;4.722;2023-03-14T08:52:52;7.70;99.90
14555;DHT22;7364;50.870;4.722;2023-03-14T08:55:20;7.60;99.90
14555;DHT22;7364;50.870;4.722;2023-03-14T08:57:47;7.60;99.90
14555;DHT22;7364;50.870;4.722;2023-03-14T09:00:17;7.50;99.90
14555;DHT22;7364;50.870;4.722;2023-03-14T09:02:46;7.50;99.90
14555;DHT22;7364;50.870;4.722;2023-03-14T09:05:14;7.40;99.90
14555;DHT22;7364;50.870;4.722;2023-03-14T09:07:41;7.30;99.90
14555;DHT22;7364;50.870;4.722;2023-03-14T09:10:10;7.40;99.90
14555;DHT22;7364;50.870;4.722;2023-03-14T09:12:38;7.40;99.90
14555;DHT22;7364;50.870;4.722;2023-03-14T09:15:07;7.30;99.90
14555;DHT22;7364;50.870;4.722;2023-03-14T09:17:35;7.40;99.90
14555;DHT22;7364;50.870;4.722;2023-03-14T09:20:07;7.40;99.90
14555;DHT22;7364;50.870;4.722;2023-03-14T09:22:35;7.50;99.90
14555;DHT22;7364;50.870;4.722;2023-03-14T09:25:03;7.40;99.90
14555;DHT22;7364;50.870;4.722;2023-03-14T09:27:31;7.50;99.90
14555;DHT22;7364;50.870;4.722;2023-03-14T09:30:01;7.50;99.90
14555;DHT22;7364;50.870;4.722;2023-03-14T09:32:31;7.60;99.90
14555;DHT22;7364;50.870;4.722;2023-03-14T09:34:58;7.50;99.90
14555;DHT22;7364;50.870;4.722;2023-03-14T09:37:29;7.50;99.90
14555;DHT22;7364;50.870;4.722;2023-03-14T09:39:57;7.50;99.90
14555;DHT22;7364;50.870;4.722;2023-03-14T09:42:26;7.50;99.90
14555;DHT22;7364;50.870;4.722;2023-03-14T09:44:56;7.40;99.90
14555;DHT22;7364;50.870;4.722;2023-03-14T09:47:25;7.30;99.90
14555;DHT22;7364;50.870;4.722;2023-03-14T09:49:53;7.40;99.90
14555;DHT22;7364;50.870;4.722;2023-03-14T09:52:23;7.40;99.90
14555;DHT22;7364;50.870;4.722;2023-03-14T09:54:55;7.40;99.90
14555;DHT22;7364;50.870;4.722;2023-03-14T09:57:25;7.40;99.90
14555;DHT22;7364;50.870;4.722;2023-03-14T09:59:56;7.40;99.90
14555;DHT22;7364;50.870;4.722;2023-03-14T10:02:28;7.30;99.90
14555;DHT22;7364;50.870;4.722;2023-03-14T10:04:59;7.10;99.90
14555;DHT22;7364;50.870;4.722;2023-03-14T10:07:29;7.00;99.90
14555;DHT22;7364;50.870;4.722;2023-03-14T10:09:59;7.00;99.90
14555;DHT22;7364;50.870;4.722;2023-03-14T10:12:34;7.00;99.90
14555;DHT22;7364;50.870;4.722;2023-03-14T10:15:05;7.10;99.90
14555;DHT22;7364;50.870;4.722;2023-03-14T10:17:40;7.10;99.90
14555;DHT22;7364;50.870;4.722;2023-03-14T10:20:28;7.20;99.90
14555;DHT22;7364;50.870;4.722;2023-03-14T10:22:59;7.40;99.90
14555;DHT22;7364;50.870;4.722;2023-03-14T10:25:30;7.30;99.90
14555;DHT22;7364;50.870;4.722;2023-03-14T10:27:58;7.20;99.90
14555;DHT22;7364;50.870;4.722;2023-03-14T10:30:38;7.10;99.90
14555;DHT22;7364;50.870;4.722;2023-03-14T10:33:12;7.10;99.90
14555;DHT22;7364;50.870;4.722;2023-03-14T10:35:52;7.00;99.90
14555;DHT22;7364;50.870;4.722;2023-03-14T10:38:23;7.00;99.90
14555;DHT22;7364;50.870;4.722;2023-03-14T10:40:54;6.90;99.90
14555;DHT22;7364;50.870;4.722;2023-03-14T10:43:24;6.80;99.90
14555;DHT22;7364;50.870;4.722;2023-03-14T10:45:55;6.80;99.90
14555;DHT22;7364;50.870;4.722;2023-03-14T10:48:30;6.70;99.90
14555;DHT22;7364;50.870;4.722;2023-03-14T10:51:03;6.60;99.90
14555;DHT22;7364;50.870;4.722;2023-03-14T10:53:40;6.50;99.90
14555;DHT22;7364;50.870;4.722;2023-03-14T10:56:14;6.60;99.90
14555;DHT22;7364;50.870;4.722;2023-03-14T10:58:46;6.60;99.90
14555;DHT22;7364;50.870;4.722;2023-03-14T11:01:36;6.60;99.90
14555;DHT22;7364;50.870;4.722;2023-03-14T11:04:14;6.70;99.90
14555;DHT22;7364;50.870;4.722;2023-03-14T11:06:47;6.50;99.90
14555;DHT22;7364;50.870;4.722;2023-03-14T11:09:22;6.60;99.90
14555;DHT22;7364;50.870;4.722;2023-03-14T11:12:03;6.60;99.90
14555;DHT22;7364;50.870;4.722;2023-03-14T11:14:41;6.50;99.90
14555;DHT22;7364;50.870;4.722;2023-03-14T11:17:18;6.50;99.90
14555;DHT22;7364;50.870;4.722;2023-03-14T11:20:03;6.60;99.90
14555;DHT22;7364;50.870;4.722;2023-03-14T11:22:39;6.60;99.90
14555;DHT22;7364;50.870;4.722;2023-03-14T11:25:18;6.50;99.90
14555;DHT22;7364;50.870;4.722;2023-03-14T11:27:55;6.30;99.90
14555;DHT22;7364;50.870;4.722;2023-03-14T11:30:32;6.20;99.90
14555;DHT22;7364;50.870;4.722;2023-03-14T11:33:09;6.10;99.90
14555;DHT22;7364;50.870;4.722;2023-03-14T11:35:44;6.10;99.90
14555;DHT22;7364;50.870;4.722;2023-03-14T11:38:24;6.00;99.90
14555;DHT22;7364;50.870;4.722;2023-03-14T11:40:55;6.10;99.90
14555;DHT22;7364;50.870;4.722;2023-03-14T11:43:28;6.10;99.90
14555;DHT22;7364;50.870;4.722;2023-03-14T11:46:03;6.20;99.90
14555;DHT22;7364;50.870;4.722;2023-03-14T11:48:39;6.20;99.90
14555;DHT22;7364;50.870;4.722;2023-03-14T11:51:15;6.30;99.90
14555;DHT22;7364;50.870;4.722;2023-03-14T11:53:50;6.50;99.90
14555;DHT22;7364;50.870;4.722;2023-03-14T11:56:27;6.50;99.90
14555;DHT22;7364;50.870;4.722;2023-03-14T11:58:59;6.50;99.90
14555;DHT22;7364;50.870;4.722;2023-03-14T12:04:37;6.70;99.90
14555;DHT22;7364;50.870;4.722;2023-03-14T12:07:12;6.70;99.90
14555;DHT22;7364;50.870;4.722;2023-03-14T12:09:42;6.80;99.90
14555;DHT22;7364;50.870;4.722;2023-03-14T12:12:13;6.80;99.90
14555;DHT22;7364;50.870;4.722;2023-03-14T12:14:53;6.80;99.90
14555;DHT22;7364;50.870;4.722;2023-03-14T12:17:24;6.80;99.90
14555;DHT22;7364;50.870;4.722;2023-03-14T12:20:03;6.70;99.90
14555;DHT22;7364;50.870;4.722;2023-03-14T12:22:35;6.80;99.90
14555;DHT22;7364;50.870;4.722;2023-03-14T12:25:06;6.90;99.90
14555;DHT22;7364;50.870;4.722;2023-03-14T12:27:44;6.90;99.90
14555;DHT22;7364;50.870;4.722;2023-03-14T12:30:26;6.80;99.90
14555;DHT22;7364;50.870;4.722;2023-03-14T12:33:21;6.70;99.90
14555;DHT22;7364;50.870;4.722;2023-03-14T12:38:58;6.70;99.90
14555;DHT22;7364;50.870;4.722;2023-03-14T12:41:35;6.60;99.90
14555;DHT22;7364;50.870;4.722;2023-03-14T12:50:12;6.20;99.90
14555;DHT22;7364;50.870;4.722;2023-03-14T12:52:44;6.20;99.90
14555;DHT22;7364;50.870;4.722;2023-03-14T12:55:24;6.10;99.90
14555;DHT22;7364;50.870;4.722;2023-03-14T12:57:59;6.00;99.90
14555;DHT22;7364;50.870;4.722;2023-03-14T13:00:32;6.00;99.90
14555;DHT22;7364;50.870;4.722;2023-03-14T13:03:15;6.10;99.90
14555;DHT22;7364;50.870;4.722;2023-03-14T13:05:53;6.10;99.90
14555;DHT22;7364;50.870;4.722;2023-03-14T13:08:36;6.20;99.90
14555;DHT22;7364;50.870;4.722;2023-03-14T13:11:08;6.30;99.90
14555;DHT22;7364;50.870;4.722;2023-03-14T13:13:42;6.40;99.90
14555;DHT22;7364;50.870;4.722;2023-03-14T13:16:16;6.70;99.90
14555;DHT22;7364;50.870;4.722;2023-03-14T13:18:48;6.80;99.90
14555;DHT22;7364;50.870;4.722;2023-03-14T13:21:18;6.90;99.90
14555;DHT22;7364;50.870;4.722;2023-03-14T13:24:00;7.00;99.90
14555;DHT22;7364;50.870;4.722;2023-03-14T13:26:35;6.90;99.90
14555;DHT22;7364;50.870;4.722;2023-03-14T13:29:16;6.80;99.90
14555;DHT22;7364;50.870;4.722;2023-03-14T13:31:45;6.70;99.90
14555;DHT22;7364;50.870;4.722;2023-03-14T13:34:15;6.60;99.90
14555;DHT22;7364;50.870;4.722;2023-03-14T13:36:43;6.50;99.90
14555;DHT22;7364;50.870;4.722;2023-03-14T13:39:13;6.50;99.90
14555;DHT22;7364;50.870;4.722;2023-03-14T13:41:44;6.40;99.90
14555;DHT22;7364;50.870;4.722;2023-03-14T13:44:17;6.20;99.90
14555;DHT22;7364;50.870;4.722;2023-03-14T13:46:45;5.80;99.90
14555;DHT22;7364;50.870;4.722;2023-03-14T13:49:21;5.60;99.90
14555;DHT22;7364;50.870;4.722;2023-03-14T13:51:49;5.80;99.90
14555;DHT22;7364;50.870;4.722;2023-03-14T13:54:18;6.00;99.90
14555;DHT22;7364;50.870;4.722;2023-03-14T13:56:47;6.20;99.90
14555;DHT22;7364;50.870;4.722;2023-03-14T13:59:23;6.40;99.90
14555;DHT22;7364;50.870;4.722;2023-03-14T14:01:52;6.50;99.90
14555;DHT22;7364;50.870;4.722;2023-03-14T14:04:23;6.70;99.90
14555;DHT22;7364;50.870;4.722;2023-03-14T14:06:55;7.00;99.90
14555;DHT22;7364;50.870;4.722;2023-03-14T14:09:25;7.20;99.90
14555;DHT22;7364;50.870;4.722;2023-03-14T14:11:56;7.50;99.90
14555;DHT22;7364;50.870;4.722;2023-03-14T14:14:28;7.90;99.90
14555;DHT22;7364;50.870;4.722;2023-03-14T14:16:58;8.10;99.90
14555;DHT22;7364;50.870;4.722;2023-03-14T14:19:30;8.30;99.90
14555;DHT22;7364;50.870;4.722;2023-03-14T14:22:02;8.60;99.90
14555;DHT22;7364;50.870;4.722;2023-03-14T14:24:31;8.80;99.90
14555;DHT22;7364;50.870;4.722;2023-03-14T14:27:01;9.00;99.90
14555;DHT22;7364;50.870;4.722;2023-03-14T14:29:30;8.70;99.90
14555;DHT22;7364;50.870;4.722;2023-03-14T14:32:08;8.60;99.90
14555;DHT22;7364;50.870;4.722;2023-03-14T14:34:58;8.80;99.90
14555;DHT22;7364;50.870;4.722;2023-03-14T14:37:27;8.90;99.90
14555;DHT22;7364;50.870;4.722;2023-03-14T14:39:57;8.80;99.90
14555;DHT22;7364;50.870;4.722;2023-03-14T14:42:27;8.60;99.90
14555;DHT22;7364;50.870;4.722;2023-03-14T14:44:56;8.30;99.90
14555;DHT22;7364;50.870;4.722;2023-03-14T14:47:26;8.40;99.90
14555;DHT22;7364;50.870;4.722;2023-03-14T14:50:03;8.20;99.90
14555;DHT22;7364;50.870;4.722;2023-03-14T14:52:36;7.80;99.90
14555;DHT22;7364;50.870;4.722;2023-03-14T14:55:13;7.80;99.90
14555;DHT22;7364;50.870;4.722;2023-03-14T14:57:50;7.70;99.90
14555;DHT22;7364;50.870;4.722;2023-03-14T15:00:21;7.60;99.90
14555;DHT22;7364;50.870;4.722;2023-03-14T15:02:50;7.40;99.90
14555;DHT22;7364;50.870;4.722;2023-03-14T15:05:24;7.30;99.90
14555;DHT22;7364;50.870;4.722;2023-03-14T15:07:52;7.10;99.90
14555;DHT22;7364;50.870;4.722;2023-03-14T15:10:21;6.80;99.90
14555;DHT22;7364;50.870;4.722;2023-03-14T15:12:49;6.70;99.90
14555;DHT22;7364;50.870;4.722;2023-03-14T15:15:17;6.50;99.90
14555;DHT22;7364;50.870;4.722;2023-03-14T15:17:45;6.30;99.90
14555;DHT22;7364;50.870;4.722;2023-03-14T15:20:14;6.30;99.90
14555;DHT22;7364;50.870;4.722;2023-03-14T15:22:44;6.30;99.90
14555;DHT22;7364;50.870;4.722;2023-03-14T15:25:12;6.20;99.90
14555;DHT22;7364;50.870;4.722;2023-03-14T15:27:40;6.30;99.90
14555;DHT22;7364;50.870;4.722;2023-03-14T15:30:11;6.50;99.90
14555;DHT22;7364;50.870;4.722;2023-03-14T15:32:39;6.50;99.90
14555;DHT22;7364;50.870;4.722;2023-03-14T15:35:07;6.60;99.90
14555;DHT22;7364;50.870;4.722;2023-03-14T15:37:35;6.80;99.90
14555;DHT22;7364;50.870;4.722;2023-03-14T15:40:09;6.90;99.90
14555;DHT22;7364;50.870;4.722;2023-03-14T15:42:40;6.90;99.90
14555;DHT22;7364;50.870;4.722;2023-03-14T15:45:09;7.00;99.90
14555;DHT22;7364;50.870;4.722;2023-03-14T15:47:36;7.00;99.90
14555;DHT22;7364;50.870;4.722;2023-03-14T15:50:05;7.00;99.90
14555;DHT22;7364;50.870;4.722;2023-03-14T15:52:35;7.10;99.90
14555;DHT22;7364;50.870;4.722;2023-03-14T15:55:05;7.20;99.90
14555;DHT22;7364;50.870;4.722;2023-03-14T15:57:33;7.30;99.90
14555;DHT22;7364;50.870;4.722;2023-03-14T16:00:01;7.30;99.90
14555;DHT22;7364;50.870;4.722;2023-03-14T16:02:30;7.20;99.90
14555;DHT22;7364;50.870;4.722;2023-03-14T16:04:57;7.10;99.90
14555;DHT22;7364;50.870;4.722;2023-03-14T16:07:25;7.00;99.90
14555;DHT22;7364;50.870;4.722;2023-03-14T16:09:53;7.00;99.90
14555;DHT22;7364;50.870;4.722;2023-03-14T16:12:22;6.90;99.90
14555;DHT22;7364;50.870;4.722;2023-03-14T16:14:49;7.00;99.90
14555;DHT22;7364;50.870;4.722;2023-03-14T16:17:17;6.90;99.90
14555;DHT22;7364;50.870;4.722;2023-03-14T16:19:45;6.90;99.90
14555;DHT22;7364;50.870;4.722;2023-03-14T16:22:12;6.90;99.90
14555;DHT22;7364;50.870;4.722;2023-03-14T16:24:40;6.80;99.90
14555;DHT22;7364;50.870;4.722;2023-03-14T16:27:08;6.90;99.90